sensor_id;sensor_type;location;lat;lon;timestamp;pressure;altitude;pressure_sealevel;temperature;humidity
28004;BME280;15330;51.234;6.754;2022-11-15T00:00:33;100480.03;;;10.05;89.74
28004;BME280;15330;51.234;6.754;2022-11-15T00:02:58;100481.00;;;10.12;89.55
28004;BME280;15330;51.234;6.754;2022-11-15T00:05:24;100481.53;;;10.16;89.55
28004;BME280;15330;51.234;6.754;2022-11-15T00:07:49;100482.03;;;10.19;89.80
28004;BME280;15330;51.234;6.754;2022-11-15T00:10:15;100464.16;;;10.20;89.95
28004;BME280;15330;51.234;6.754;2022-11-15T00:12:40;100472.00;;;10.21;90.04
28004;BME280;15330;51.234;6.754;2022-11-15T00:15:06;100469.00;;;10.24;89.92
28004;BME280;15330;51.234;6.754;2022-11-15T00:17:32;100469.47;;;10.28;90.15
28004;BME280;15330;51.234;6.754;2022-11-15T00:19:57;100478.53;;;10.27;90.58
28004;BME280;15330;51.234;6.754;2022-11-15T00:22:23;100471.81;;;10.31;89.89
28004;BME280;15330;51.234;6.754;2022-11-15T00:24:48;100476.50;;;10.37;90.05
28004;BME280;15330;51.234;6.754;2022-11-15T00:27:14;100477.81;;;10.41;90.42
28004;BME280;15330;51.234;6.754;2022-11-15T00:29:39;100473.97;;;10.44;90.20
28004;BME280;15330;51.234;6.754;2022-11-15T00:32:09;100470.63;;;10.42;90.81
28004;BME280;15330;51.234;6.754;2022-11-15T00:34:34;100473.81;;;10.45;90.47
28004;BME280;15330;51.234;6.754;2022-11-15T00:36:59;100478.31;;;10.45;90.74
28004;BME280;15330;51.234;6.754;2022-11-15T00:39:25;100474.47;;;10.47;90.66
28004;BME280;15330;51.234;6.754;2022-11-15T00:41:50;100471.81;;;10.47;91.30
28004;BME280;15330;51.234;6.754;2022-11-15T00:44:15;100470.59;;;10.50;90.95
28004;BME280;15330;51.234;6.754;2022-11-15T00:46:41;100477.47;;;10.52;90.97
28004;BME280;15330;51.234;6.754;2022-11-15T00:49:06;100478.13;;;10.54;90.96
28004;BME280;15330;51.234;6.754;2022-11-15T00:51:31;100467.28;;;10.56;91.46
28004;BME280;15330;51.234;6.754;2022-11-15T00:53:56;100480.63;;;10.64;91.42
28004;BME280;15330;51.234;6.754;2022-11-15T00:56:22;100476.25;;;10.63;91.31
28004;BME280;15330;51.234;6.754;2022-11-15T00:58:47;100468.56;;;10.68;91.52
28004;BME280;15330;51.234;6.754;2022-11-15T01:01:14;100464.69;;;10.71;91.23
28004;BME280;15330;51.234;6.754;2022-11-15T01:03:40;100461.84;;;10.72;91.29
28004;BME280;15330;51.234;6.754;2022-11-15T01:06:09;100460.97;;;10.80;91.18
28004;BME280;15330;51.234;6.754;2022-11-15T01:08:35;100464.31;;;10.82;91.44
28004;BME280;15330;51.234;6.754;2022-11-15T01:11:05;100457.13;;;10.82;91.58
28004;BME280;15330;51.234;6.754;2022-11-15T01:13:32;100456.78;;;10.85;91.12
28004;BME280;15330;51.234;6.754;2022-11-15T01:15:59;100449.72;;;10.92;91.44
28004;BME280;15330;51.234;6.754;2022-11-15T01:18:24;100435.56;;;10.84;91.38
28004;BME280;15330;51.234;6.754;2022-11-15T01:20:49;100446.22;;;10.92;91.45
28004;BME280;15330;51.234;6.754;2022-11-15T01:23:15;100453.63;;;10.90;91.51
28004;BME280;15330;51.234;6.754;2022-11-15T01:25:41;100455.25;;;10.91;91.42
28004;BME280;15330;51.234;6.754;2022-11-15T01:28:06;100449.91;;;10.91;91.71
28004;BME280;15330;51.234;6.754;2022-11-15T01:30:32;100451.41;;;10.93;91.80
28004;BME280;15330;51.234;6.754;2022-11-15T01:32:57;100439.34;;;10.97;91.33
28004;BME280;15330;51.234;6.754;2022-11-15T01:35:22;100446.38;;;10.98;91.70
28004;BME280;15330;51.234;6.754;2022-11-15T01:37:48;100441.34;;;10.95;91.70
28004;BME280;15330;51.234;6.754;2022-11-15T01:40:13;100452.56;;;10.99;91.38
28004;BME280;15330;51.234;6.754;2022-11-15T01:42:39;100434.66;;;10.99;91.72
28004;BME280;15330;51.234;6.754;2022-11-15T01:45:04;100435.50;;;11.00;91.84
28004;BME280;15330;51.234;6.754;2022-11-15T01:47:37;100440.84;;;11.00;92.04
28004;BME280;15330;51.234;6.754;2022-11-15T01:50:10;100433.47;;;11.02;92.01
28004;BME280;15330;51.234;6.754;2022-11-15T01:52:36;100433.28;;;11.03;91.91
28004;BME280;15330;51.234;6.754;2022-11-15T01:55:14;100429.59;;;11.04;91.99
28004;BME280;15330;51.234;6.754;2022-11-15T01:57:42;100433.94;;;11.06;91.71
28004;BME280;15330;51.234;6.754;2022-11-15T02:00:09;100431.44;;;11.04;91.94
28004;BME280;15330;51.234;6.754;2022-11-15T02:02:36;100425.75;;;11.07;92.19
28004;BME280;15330;51.234;6.754;2022-11-15T02:05:02;100423.25;;;11.06;92.16
28004;BME280;15330;51.234;6.754;2022-11-15T02:07:28;100420.72;;;11.04;92.19
28004;BME280;15330;51.234;6.754;2022-11-15T02:09:55;100411.19;;;11.10;91.99
28004;BME280;15330;51.234;6.754;2022-11-15T02:12:21;100410.34;;;11.09;92.09
28004;BME280;15330;51.234;6.754;2022-11-15T02:14:52;100403.44;;;11.15;91.64
28004;BME280;15330;51.234;6.754;2022-11-15T02:18:08;100404.09;;;11.17;92.09
28004;BME280;15330;51.234;6.754;2022-11-15T02:23:29;100405.44;;;11.21;91.77
28004;BME280;15330;51.234;6.754;2022-11-15T02:29:10;100398.19;;;11.21;91.75
28004;BME280;15330;51.234;6.754;2022-11-15T02:37:15;100394.84;;;11.27;92.04
28004;BME280;15330;51.234;6.754;2022-11-15T02:40:00;100399.63;;;11.32;92.28
28004;BME280;15330;51.234;6.754;2022-11-15T02:42:32;100391.81;;;11.30;91.86
28004;BME280;15330;51.234;6.754;2022-11-15T02:45:20;100393.28;;;11.33;91.69
28004;BME280;15330;51.234;6.754;2022-11-15T02:47:50;100392.66;;;11.31;92.00
28004;BME280;15330;51.234;6.754;2022-11-15T02:50:19;100387.91;;;11.33;92.32
28004;BME280;15330;51.234;6.754;2022-11-15T02:52:48;100388.75;;;11.33;92.25
28004;BME280;15330;51.234;6.754;2022-11-15T02:55:36;100388.59;;;11.35;92.31
28004;BME280;15330;51.234;6.754;2022-11-15T02:58:23;100394.06;;;11.42;92.27
28004;BME280;15330;51.234;6.754;2022-11-15T03:01:51;100388.72;;;11.42;92.34
28004;BME280;15330;51.234;6.754;2022-11-15T03:04:18;100398.88;;;11.46;92.57
28004;BME280;15330;51.234;6.754;2022-11-15T03:06:59;100399.88;;;11.45;92.58
28004;BME280;15330;51.234;6.754;2022-11-15T03:09:35;100396.84;;;11.48;92.60
28004;BME280;15330;51.234;6.754;2022-11-15T03:15:00;100379.66;;;11.43;92.57
28004;BME280;15330;51.234;6.754;2022-11-15T03:17:36;100388.16;;;11.46;92.44
28004;BME280;15330;51.234;6.754;2022-11-15T03:20:05;100382.28;;;11.51;92.47
28004;BME280;15330;51.234;6.754;2022-11-15T03:22:38;100387.81;;;11.49;92.76
28004;BME280;15330;51.234;6.754;2022-11-15T03:25:06;100379.44;;;11.52;92.67
28004;BME280;15330;51.234;6.754;2022-11-15T03:27:38;100378.59;;;11.52;92.69
28004;BME280;15330;51.234;6.754;2022-11-15T03:30:06;100373.88;;;11.54;92.78
28004;BME280;15330;51.234;6.754;2022-11-15T03:32:44;100375.00;;;11.59;92.83
28004;BME280;15330;51.234;6.754;2022-11-15T03:35:25;100367.81;;;11.60;92.78
28004;BME280;15330;51.234;6.754;2022-11-15T03:40:25;100368.63;;;11.60;92.87
28004;BME280;15330;51.234;6.754;2022-11-15T03:43:00;100367.91;;;11.66;92.91
28004;BME280;15330;51.234;6.754;2022-11-15T03:45:36;100353.41;;;11.61;92.55
28004;BME280;15330;51.234;6.754;2022-11-15T03:48:11;100358.19;;;11.65;92.67
28004;BME280;15330;51.234;6.754;2022-11-15T03:50:38;100354.16;;;11.69;92.93
28004;BME280;15330;51.234;6.754;2022-11-15T03:53:03;100361.53;;;11.67;92.87
28004;BME280;15330;51.234;6.754;2022-11-15T03:55:31;100350.16;;;11.65;92.58
28004;BME280;15330;51.234;6.754;2022-11-15T03:57:59;100362.53;;;11.66;92.81
28004;BME280;15330;51.234;6.754;2022-11-15T04:00:24;100354.34;;;11.68;92.62
28004;BME280;15330;51.234;6.754;2022-11-15T04:02:50;100348.13;;;11.67;92.51
28004;BME280;15330;51.234;6.754;2022-11-15T04:05:15;100356.19;;;11.67;92.76
28004;BME280;15330;51.234;6.754;2022-11-15T04:07:40;100356.00;;;11.69;92.67
28004;BME280;15330;51.234;6.754;2022-11-15T04:10:07;100351.66;;;11.68;92.56
28004;BME280;15330;51.234;6.754;2022-11-15T04:12:36;100347.59;;;11.72;92.44
28004;BME280;15330;51.234;6.754;2022-11-15T04:15:07;100351.13;;;11.72;92.37
28004;BME280;15330;51.234;6.754;2022-11-15T04:20:04;100350.63;;;11.69;92.31
28004;BME280;15330;51.234;6.754;2022-11-15T04:22:48;100340.09;;;11.67;92.50
28004;BME280;15330;51.234;6.754;2022-11-15T04:25:32;100346.78;;;11.71;92.76
28004;BME280;15330;51.234;6.754;2022-11-15T04:27:57;100348.97;;;11.68;92.86
28004;BME280;15330;51.234;6.754;2022-11-15T04:30:23;100346.78;;;11.71;92.61
28004;BME280;15330;51.234;6.754;2022-11-15T04:32:48;100343.25;;;11.71;92.45
28004;BME280;15330;51.234;6.754;2022-11-15T04:35:14;100343.44;;;11.69;92.74
28004;BME280;15330;51.234;6.754;2022-11-15T04:37:40;100345.41;;;11.75;92.85
28004;BME280;15330;51.234;6.754;2022-11-15T04:40:06;100347.41;;;11.73;93.07
28004;BME280;15330;51.234;6.754;2022-11-15T04:42:31;100343.91;;;11.73;92.85
28004;BME280;15330;51.234;6.754;2022-11-15T04:44:56;100348.97;;;11.68;93.42
28004;BME280;15330;51.234;6.754;2022-11-15T04:47:22;100348.78;;;11.69;93.80
28004;BME280;15330;51.234;6.754;2022-11-15T04:49:47;100344.09;;;11.71;93.86
28004;BME280;15330;51.234;6.754;2022-11-15T04:52:12;100337.31;;;11.61;94.56
28004;BME280;15330;51.234;6.754;2022-11-15T04:54:38;100345.63;;;11.66;94.53
28004;BME280;15330;51.234;6.754;2022-11-15T04:57:03;100350.63;;;11.69;94.51
28004;BME280;15330;51.234;6.754;2022-11-15T04:59:28;100343.63;;;11.68;94.72
28004;BME280;15330;51.234;6.754;2022-11-15T05:01:54;100333.50;;;11.55;95.50
28004;BME280;15330;51.234;6.754;2022-11-15T05:04:19;100348.03;;;11.61;95.18
28004;BME280;15330;51.234;6.754;2022-11-15T05:06:48;100348.41;;;11.58;95.56
28004;BME280;15330;51.234;6.754;2022-11-15T05:09:16;100343.03;;;11.58;95.56
28004;BME280;15330;51.234;6.754;2022-11-15T05:11:41;100340.19;;;11.59;95.02
28004;BME280;15330;51.234;6.754;2022-11-15T05:14:07;100351.91;;;11.58;95.54
28004;BME280;15330;51.234;6.754;2022-11-15T05:16:32;100349.06;;;11.60;95.93
28004;BME280;15330;51.234;6.754;2022-11-15T05:18:58;100344.34;;;11.62;95.36
28004;BME280;15330;51.234;6.754;2022-11-15T05:21:23;100356.47;;;11.72;95.24
28004;BME280;15330;51.234;6.754;2022-11-15T05:23:48;100345.63;;;11.66;94.88
28004;BME280;15330;51.234;6.754;2022-11-15T05:26:16;100346.78;;;11.71;94.81
28004;BME280;15330;51.234;6.754;2022-11-15T05:28:42;100344.44;;;11.68;94.96
28004;BME280;15330;51.234;6.754;2022-11-15T05:31:10;100333.38;;;11.71;94.42
28004;BME280;15330;51.234;6.754;2022-11-15T05:33:37;100321.69;;;11.64;94.70
28004;BME280;15330;51.234;6.754;2022-11-15T05:36:21;100336.53;;;11.75;94.29
28004;BME280;15330;51.234;6.754;2022-11-15T05:38:50;100329.47;;;11.74;94.33
28004;BME280;15330;51.234;6.754;2022-11-15T05:41:18;100325.97;;;11.73;94.08
28004;BME280;15330;51.234;6.754;2022-11-15T05:43:45;100330.53;;;11.73;94.36
28004;BME280;15330;51.234;6.754;2022-11-15T05:46:12;100333.00;;;11.74;93.98
28004;BME280;15330;51.234;6.754;2022-11-15T05:48:41;100325.81;;;11.75;94.16
28004;BME280;15330;51.234;6.754;2022-11-15T05:51:08;100331.19;;;11.75;94.16
28004;BME280;15330;51.234;6.754;2022-11-15T05:53:34;100338.19;;;11.76;94.16
28004;BME280;15330;51.234;6.754;2022-11-15T05:56:01;100333.84;;;11.75;93.75
28004;BME280;15330;51.234;6.754;2022-11-15T05:58:27;100328.97;;;11.79;94.04
28004;BME280;15330;51.234;6.754;2022-11-15T06:00:53;100337.09;;;11.85;93.82
28004;BME280;15330;51.234;6.754;2022-11-15T06:03:19;100342.50;;;12.15;92.44
28004;BME280;15330;51.234;6.754;2022-11-15T06:05:44;100348.31;;;12.18;92.25
28004;BME280;15330;51.234;6.754;2022-11-15T06:08:10;100352.19;;;12.01;93.61
28004;BME280;15330;51.234;6.754;2022-11-15T06:10:35;100344.25;;;12.22;92.48
28004;BME280;15330;51.234;6.754;2022-11-15T06:13:02;100345.56;;;12.11;93.22
28004;BME280;15330;51.234;6.754;2022-11-15T06:15:28;100352.75;;;11.82;95.17
28004;BME280;15330;51.234;6.754;2022-11-15T06:17:57;100352.16;;;11.86;95.57
28004;BME280;15330;51.234;6.754;2022-11-15T06:20:24;100349.78;;;11.91;95.21
28004;BME280;15330;51.234;6.754;2022-11-15T06:22:50;100349.94;;;11.75;95.89
28004;BME280;15330;51.234;6.754;2022-11-15T06:25:15;100351.25;;;11.79;95.50
28004;BME280;15330;51.234;6.754;2022-11-15T06:27:40;100353.44;;;11.75;95.40
28004;BME280;15330;51.234;6.754;2022-11-15T06:30:06;100356.44;;;11.81;95.08
28004;BME280;15330;51.234;6.754;2022-11-15T06:32:32;100362.44;;;11.83;94.78
28004;BME280;15330;51.234;6.754;2022-11-15T06:34:57;100364.09;;;11.84;94.45
28004;BME280;15330;51.234;6.754;2022-11-15T06:37:22;100362.72;;;11.88;94.33
28004;BME280;15330;51.234;6.754;2022-11-15T06:39:48;100363.28;;;11.83;94.17
28004;BME280;15330;51.234;6.754;2022-11-15T06:42:13;100362.88;;;11.86;94.33
28004;BME280;15330;51.234;6.754;2022-11-15T06:44:38;100363.53;;;11.88;93.71
28004;BME280;15330;51.234;6.754;2022-11-15T06:47:04;100365.41;;;11.88;93.73
28004;BME280;15330;51.234;6.754;2022-11-15T06:49:29;100375.75;;;11.91;93.68
28004;BME280;15330;51.234;6.754;2022-11-15T06:51:54;100370.41;;;11.91;93.31
28004;BME280;15330;51.234;6.754;2022-11-15T06:54:20;100367.06;;;11.89;93.71
28004;BME280;15330;51.234;6.754;2022-11-15T06:56:46;100372.59;;;11.87;93.61
28004;BME280;15330;51.234;6.754;2022-11-15T06:59:11;100379.09;;;11.93;93.11
28004;BME280;15330;51.234;6.754;2022-11-15T07:01:36;100386.41;;;11.99;92.35
28004;BME280;15330;51.234;6.754;2022-11-15T07:04:02;100386.13;;;11.94;92.74
28004;BME280;15330;51.234;6.754;2022-11-15T07:06:27;100395.09;;;12.01;92.38
28004;BME280;15330;51.234;6.754;2022-11-15T07:08:52;100396.72;;;11.87;92.90
28004;BME280;15330;51.234;6.754;2022-11-15T07:11:18;100399.56;;;11.86;93.08
28004;BME280;15330;51.234;6.754;2022-11-15T07:13:43;100399.13;;;11.82;93.20
28004;BME280;15330;51.234;6.754;2022-11-15T07:16:09;100397.91;;;11.85;92.62
28004;BME280;15330;51.234;6.754;2022-11-15T07:18:36;100403.94;;;11.87;92.88
28004;BME280;15330;51.234;6.754;2022-11-15T07:21:04;100409.94;;;11.89;92.51
28004;BME280;15330;51.234;6.754;2022-11-15T07:23:30;100413.16;;;11.84;92.41
28004;BME280;15330;51.234;6.754;2022-11-15T07:25:59;100425.38;;;11.87;92.19
28004;BME280;15330;51.234;6.754;2022-11-15T07:28:27;100430.16;;;11.76;92.50
28004;BME280;15330;51.234;6.754;2022-11-15T07:30:53;100426.63;;;11.76;92.24
28004;BME280;15330;51.234;6.754;2022-11-15T07:33:18;100429.22;;;11.84;91.63
28004;BME280;15330;51.234;6.754;2022-11-15T07:35:43;100427.78;;;11.82;90.79
28004;BME280;15330;51.234;6.754;2022-11-15T07:38:11;100428.22;;;11.85;89.67
28004;BME280;15330;51.234;6.754;2022-11-15T07:40:37;100432.97;;;11.98;88.20
28004;BME280;15330;51.234;6.754;2022-11-15T07:43:05;100450.56;;;12.00;87.91
28004;BME280;15330;51.234;6.754;2022-11-15T07:45:31;100441.56;;;11.93;88.23
28004;BME280;15330;51.234;6.754;2022-11-15T07:47:59;100442.41;;;11.94;88.25
28004;BME280;15330;51.234;6.754;2022-11-15T07:50:24;100447.47;;;11.89;88.16
28004;BME280;15330;51.234;6.754;2022-11-15T07:52:57;100449.97;;;11.90;88.66
28004;BME280;15330;51.234;6.754;2022-11-15T07:55:23;100446.63;;;11.88;88.92
28004;BME280;15330;51.234;6.754;2022-11-15T07:57:49;100442.53;;;11.77;89.22
28004;BME280;15330;51.234;6.754;2022-11-15T08:00:15;100445.69;;;11.81;89.48
28004;BME280;15330;51.234;6.754;2022-11-15T08:02:41;100455.78;;;11.71;89.95
28004;BME280;15330;51.234;6.754;2022-11-15T08:05:07;100445.91;;;11.71;89.61
28004;BME280;15330;51.234;6.754;2022-11-15T08:07:32;100455.75;;;11.79;89.10
28004;BME280;15330;51.234;6.754;2022-11-15T08:09:58;100453.25;;;11.77;89.17
28004;BME280;15330;51.234;6.754;2022-11-15T08:12:24;100449.44;;;11.72;89.46
28004;BME280;15330;51.234;6.754;2022-11-15T08:14:50;100453.84;;;11.88;89.33
28004;BME280;15330;51.234;6.754;2022-11-15T08:17:15;100452.72;;;11.82;89.23
28004;BME280;15330;51.234;6.754;2022-11-15T08:19:40;100456.03;;;11.84;89.00
28004;BME280;15330;51.234;6.754;2022-11-15T08:22:07;100448.47;;;11.88;89.17
28004;BME280;15330;51.234;6.754;2022-11-15T08:24:32;100446.97;;;11.85;89.30
28004;BME280;15330;51.234;6.754;2022-11-15T08:26:59;100449.56;;;11.79;88.28
28004;BME280;15330;51.234;6.754;2022-11-15T08:29:24;100452.06;;;11.80;88.14
28004;BME280;15330;51.234;6.754;2022-11-15T08:31:50;100450.47;;;11.94;87.33
28004;BME280;15330;51.234;6.754;2022-11-15T08:34:15;100429.28;;;11.99;86.75
28004;BME280;15330;51.234;6.754;2022-11-15T08:36:41;100436.88;;;12.10;86.04
28004;BME280;15330;51.234;6.754;2022-11-15T08:39:10;100433.03;;;12.27;85.52
28004;BME280;15330;51.234;6.754;2022-11-15T08:41:36;100428.50;;;12.72;83.65
28004;BME280;15330;51.234;6.754;2022-11-15T08:44:02;100427.31;;;13.10;81.71
28004;BME280;15330;51.234;6.754;2022-11-15T08:46:28;100421.97;;;13.25;80.41
28004;BME280;15330;51.234;6.754;2022-11-15T08:48:53;100420.63;;;13.57;79.08
28004;BME280;15330;51.234;6.754;2022-11-15T08:51:19;100415.97;;;14.43;75.80
28004;BME280;15330;51.234;6.754;2022-11-15T08:53:44;100404.81;;;14.18;75.69
28004;BME280;15330;51.234;6.754;2022-11-15T08:56:11;100409.00;;;13.99;75.50
28004;BME280;15330;51.234;6.754;2022-11-15T08:58:37;100403.22;;;14.02;76.18
28004;BME280;15330;51.234;6.754;2022-11-15T09:01:03;100413.75;;;13.97;75.01
28004;BME280;15330;51.234;6.754;2022-11-15T09:03:29;100409.94;;;13.64;75.87
28004;BME280;15330;51.234;6.754;2022-11-15T09:05:59;100412.28;;;13.73;76.04
28004;BME280;15330;51.234;6.754;2022-11-15T09:08:28;100414.34;;;13.71;75.64
28004;BME280;15330;51.234;6.754;2022-11-15T09:10:54;100408.97;;;13.50;74.77
28004;BME280;15330;51.234;6.754;2022-11-15T09:13:19;100409.59;;;13.94;72.55
28004;BME280;15330;51.234;6.754;2022-11-15T09:15:45;100424.28;;;14.20;70.47
28004;BME280;15330;51.234;6.754;2022-11-15T09:18:10;100403.03;;;14.31;70.15
28004;BME280;15330;51.234;6.754;2022-11-15T09:20:35;100397.69;;;14.38;69.81
28004;BME280;15330;51.234;6.754;2022-11-15T09:23:02;100397.19;;;14.56;69.45
28004;BME280;15330;51.234;6.754;2022-11-15T09:25:28;100389.41;;;15.41;67.01
28004;BME280;15330;51.234;6.754;2022-11-15T09:27:54;100401.50;;;15.72;65.74
28004;BME280;15330;51.234;6.754;2022-11-15T09:30:19;100389.28;;;16.86;61.79
28004;BME280;15330;51.234;6.754;2022-11-15T09:32:44;100393.97;;;17.04;60.33
28004;BME280;15330;51.234;6.754;2022-11-15T09:35:10;100387.81;;;16.06;61.34
28004;BME280;15330;51.234;6.754;2022-11-15T09:37:35;100391.25;;;16.46;59.85
28004;BME280;15330;51.234;6.754;2022-11-15T09:40:01;100377.19;;;17.90;55.60
28004;BME280;15330;51.234;6.754;2022-11-15T09:42:48;100386.22;;;17.52;56.24
28004;BME280;15330;51.234;6.754;2022-11-15T09:45:28;100367.41;;;16.95;57.09
28004;BME280;15330;51.234;6.754;2022-11-15T09:51:11;100357.72;;;18.06;54.23
28004;BME280;15330;51.234;6.754;2022-11-15T09:54:29;100364.72;;;16.95;56.94
28004;BME280;15330;51.234;6.754;2022-11-15T09:56:37;100349.28;;;18.32;53.30
28004;BME280;15330;51.234;6.754;2022-11-15T10:04:33;100351.06;;;18.63;52.32
28004;BME280;15330;51.234;6.754;2022-11-15T10:09:49;100333.56;;;16.92;54.29
28004;BME280;15330;51.234;6.754;2022-11-15T10:12:17;100332.88;;;17.59;53.03
28004;BME280;15330;51.234;6.754;2022-11-15T10:14:43;100322.34;;;18.01;52.41
28004;BME280;15330;51.234;6.754;2022-11-15T10:17:26;100332.34;;;17.51;53.74
28004;BME280;15330;51.234;6.754;2022-11-15T10:22:41;100309.56;;;17.65;53.40
28004;BME280;15330;51.234;6.754;2022-11-15T10:27:35;100302.00;;;19.66;47.53
28004;BME280;15330;51.234;6.754;2022-11-15T10:30:01;100301.41;;;20.34;45.52
28004;BME280;15330;51.234;6.754;2022-11-15T10:32:29;100300.53;;;20.45;46.09
28004;BME280;15330;51.234;6.754;2022-11-15T10:34:57;100306.25;;;20.09;45.72
28004;BME280;15330;51.234;6.754;2022-11-15T10:37:30;100307.69;;;20.35;44.03
28004;BME280;15330;51.234;6.754;2022-11-15T10:40:06;100299.63;;;20.05;45.11
28004;BME280;15330;51.234;6.754;2022-11-15T10:42:39;100306.25;;;18.43;48.95
28004;BME280;15330;51.234;6.754;2022-11-15T10:45:26;100300.09;;;17.49;52.04
28004;BME280;15330;51.234;6.754;2022-11-15T10:47:52;100293.19;;;16.66;52.81
28004;BME280;15330;51.234;6.754;2022-11-15T10:50:31;100290.28;;;17.30;52.04
28004;BME280;15330;51.234;6.754;2022-11-15T10:52:58;100286.97;;;17.78;51.43
28004;BME280;15330;51.234;6.754;2022-11-15T10:55:30;100277.19;;;17.27;52.22
28004;BME280;15330;51.234;6.754;2022-11-15T10:58:05;100277.72;;;17.42;51.88
28004;BME280;15330;51.234;6.754;2022-11-15T11:00:38;100268.47;;;17.50;49.92
28004;BME280;15330;51.234;6.754;2022-11-15T11:03:27;100267.72;;;16.86;51.76
28004;BME280;15330;51.234;6.754;2022-11-15T11:06:25;100266.25;;;17.15;50.42
28004;BME280;15330;51.234;6.754;2022-11-15T11:09:00;100275.59;;;16.43;51.83
28004;BME280;15330;51.234;6.754;2022-11-15T11:14:25;100262.84;;;17.02;49.28
28004;BME280;15330;51.234;6.754;2022-11-15T11:30:59;100250.50;;;15.39;51.15
28004;BME280;15330;51.234;6.754;2022-11-15T11:33:33;100242.41;;;15.46;50.39
28004;BME280;15330;51.234;6.754;2022-11-15T11:36:25;100248.00;;;15.51;49.56
28004;BME280;15330;51.234;6.754;2022-11-15T11:41:43;100245.06;;;14.73;51.22
28004;BME280;15330;51.234;6.754;2022-11-15T11:44:25;100236.53;;;14.56;52.15
28004;BME280;15330;51.234;6.754;2022-11-15T11:52:31;100231.56;;;14.66;52.76
28004;BME280;15330;51.234;6.754;2022-11-15T11:57:48;100227.00;;;14.13;53.30
28004;BME280;15330;51.234;6.754;2022-11-15T12:00:20;100229.84;;;14.39;52.69
28004;BME280;15330;51.234;6.754;2022-11-15T12:03:10;100229.91;;;14.52;52.57
28004;BME280;15330;51.234;6.754;2022-11-15T12:05:44;100216.59;;;14.44;52.91
28004;BME280;15330;51.234;6.754;2022-11-15T12:12:02;100200.59;;;14.29;53.19
28004;BME280;15330;51.234;6.754;2022-11-15T12:14:21;100193.66;;;14.42;53.01
28004;BME280;15330;51.234;6.754;2022-11-15T12:16:48;100183.34;;;14.04;54.13
28004;BME280;15330;51.234;6.754;2022-11-15T12:19:13;100182.50;;;14.04;54.53
28004;BME280;15330;51.234;6.754;2022-11-15T12:29:49;100166.03;;;14.26;53.71
28004;BME280;15330;51.234;6.754;2022-11-15T12:32:27;100169.69;;;14.73;53.51
28004;BME280;15330;51.234;6.754;2022-11-15T12:34:54;100170.69;;;14.65;53.89
28004;BME280;15330;51.234;6.754;2022-11-15T12:45:38;100146.88;;;14.49;54.75
28004;BME280;15330;51.234;6.754;2022-11-15T12:53:30;100135.72;;;14.79;55.23
28004;BME280;15330;51.234;6.754;2022-11-15T12:58:39;100112.28;;;14.66;55.99
28004;BME280;15330;51.234;6.754;2022-11-15T13:01:10;100104.66;;;14.63;56.20
28004;BME280;15330;51.234;6.754;2022-11-15T13:03:36;100095.31;;;14.92;55.62
28004;BME280;15330;51.234;6.754;2022-11-15T13:17:49;100077.91;;;14.88;56.86
28004;BME280;15330;51.234;6.754;2022-11-15T13:30:52;100060.91;;;14.28;59.54
28004;BME280;15330;51.234;6.754;2022-11-15T13:33:38;100060.91;;;14.34;58.96
28004;BME280;15330;51.234;6.754;2022-11-15T13:36:13;100059.47;;;14.32;59.33
28004;BME280;15330;51.234;6.754;2022-11-15T13:38:40;100048.72;;;14.45;59.23
28004;BME280;15330;51.234;6.754;2022-11-15T13:41:18;100041.88;;;14.36;59.29
28004;BME280;15330;51.234;6.754;2022-11-15T13:43:46;100030.28;;;14.36;59.27
28004;BME280;15330;51.234;6.754;2022-11-15T13:46:27;100041.88;;;14.29;60.18
28004;BME280;15330;51.234;6.754;2022-11-15T13:48:56;100034.06;;;14.41;59.90
28004;BME280;15330;51.234;6.754;2022-11-15T13:51:36;100031.53;;;14.26;59.97
28004;BME280;15330;51.234;6.754;2022-11-15T13:56:34;100021.00;;;14.45;59.93
28004;BME280;15330;51.234;6.754;2022-11-15T13:59:08;100014.56;;;14.32;60.08
28004;BME280;15330;51.234;6.754;2022-11-15T14:01:34;100012.06;;;14.24;60.59
28004;BME280;15330;51.234;6.754;2022-11-15T14:04:00;100006.69;;;14.11;60.94
28004;BME280;15330;51.234;6.754;2022-11-15T14:06:28;100000.69;;;14.16;61.17
28004;BME280;15330;51.234;6.754;2022-11-15T14:11:29;99996.13;;;14.10;62.01
28004;BME280;15330;51.234;6.754;2022-11-15T14:16:34;99989.94;;;14.16;62.34
28004;BME280;15330;51.234;6.754;2022-11-15T14:19:01;99989.50;;;14.06;62.97
28004;BME280;15330;51.234;6.754;2022-11-15T14:21:27;99977.13;;;14.11;63.27
28004;BME280;15330;51.234;6.754;2022-11-15T14:23:52;99985.56;;;14.02;63.90
28004;BME280;15330;51.234;6.754;2022-11-15T14:26:31;99968.81;;;14.06;64.29
28004;BME280;15330;51.234;6.754;2022-11-15T14:31:49;99953.94;;;13.97;65.07
28004;BME280;15330;51.234;6.754;2022-11-15T14:34:14;99956.38;;;13.92;65.56
28004;BME280;15330;51.234;6.754;2022-11-15T14:36:40;99951.44;;;13.89;65.58
28004;BME280;15330;51.234;6.754;2022-11-15T14:39:05;99952.44;;;13.75;66.39
28004;BME280;15330;51.234;6.754;2022-11-15T14:41:35;99955.13;;;13.81;66.19
28004;BME280;15330;51.234;6.754;2022-11-15T14:44:03;99940.47;;;13.77;66.59
28004;BME280;15330;51.234;6.754;2022-11-15T14:46:29;99944.81;;;13.78;66.93
28004;BME280;15330;51.234;6.754;2022-11-15T14:48:54;99935.72;;;13.79;67.48
28004;BME280;15330;51.234;6.754;2022-11-15T14:51:19;99941.28;;;13.84;67.15
28004;BME280;15330;51.234;6.754;2022-11-15T14:53:46;99944.59;;;13.73;67.61
28004;BME280;15330;51.234;6.754;2022-11-15T14:56:12;99938.59;;;13.71;67.62
28004;BME280;15330;51.234;6.754;2022-11-15T14:58:38;99932.19;;;13.66;68.04
28004;BME280;15330;51.234;6.754;2022-11-15T15:01:13;99934.88;;;13.72;68.02
28004;BME280;15330;51.234;6.754;2022-11-15T15:03:39;99918.16;;;13.70;68.18